sensor_id;sensor_type;location;lat;lon;timestamp;P1;durP1;ratioP1;P2;durP2;ratioP2
26574;SDS011;67165;50.256;10.978;2023-03-23T00:02:24;2.60;;;1.77;;
26574;SDS011;67165;50.256;10.978;2023-03-23T00:04:50;3.28;;;1.80;;
26574;SDS011;67165;50.256;10.978;2023-03-23T00:07:18;4.80;;;2.10;;
26574;SDS011;67165;50.256;10.978;2023-03-23T00:09:48;3.80;;;2.20;;
26574;SDS011;67165;50.256;10.978;2023-03-23T00:12:22;3.53;;;2.30;;
26574;SDS011;67165;50.256;10.978;2023-03-23T00:14:57;5.18;;;2.30;;
26574;SDS011;67165;50.256;10.978;2023-03-23T00:17:28;7.32;;;2.38;;
26574;SDS011;67165;50.256;10.978;2023-03-23T00:19:54;4.80;;;2.38;;
26574;SDS011;67165;50.256;10.978;2023-03-23T00:22:20;4.13;;;2.38;;
26574;SDS011;67165;50.256;10.978;2023-03-23T00:24:47;3.63;;;2.30;;
26574;SDS011;67165;50.256;10.978;2023-03-23T00:27:15;3.88;;;2.58;;
26574;SDS011;67165;50.256;10.978;2023-03-23T00:29:41;4.95;;;2.50;;
26574;SDS011;67165;50.256;10.978;2023-03-23T00:32:07;3.60;;;2.65;;
26574;SDS011;67165;50.256;10.978;2023-03-23T00:34:37;4.90;;;2.70;;
26574;SDS011;67165;50.256;10.978;2023-03-23T00:37:05;5.18;;;2.65;;
26574;SDS011;67165;50.256;10.978;2023-03-23T00:39:32;4.13;;;2.58;;
26574;SDS011;67165;50.256;10.978;2023-03-23T00:41:58;4.22;;;2.72;;
26574;SDS011;67165;50.256;10.978;2023-03-23T00:44:27;5.03;;;2.65;;
26574;SDS011;67165;50.256;10.978;2023-03-23T00:46:53;7.78;;;2.90;;
26574;SDS011;67165;50.256;10.978;2023-03-23T00:49:21;4.22;;;2.22;;
26574;SDS011;67165;50.256;10.978;2023-03-23T00:51:54;3.38;;;2.33;;
26574;SDS011;67165;50.256;10.978;2023-03-23T00:54:23;5.07;;;2.50;;
26574;SDS011;67165;50.256;10.978;2023-03-23T00:56:50;2.60;;;2.13;;
26574;SDS011;67165;50.256;10.978;2023-03-23T00:59:16;5.78;;;2.55;;
26574;SDS011;67165;50.256;10.978;2023-03-23T01:01:41;2.70;;;1.90;;
26574;SDS011;67165;50.256;10.978;2023-03-23T01:04:07;3.63;;;2.30;;
26574;SDS011;67165;50.256;10.978;2023-03-23T01:06:34;2.20;;;1.88;;
26574;SDS011;67165;50.256;10.978;2023-03-23T01:09:03;3.53;;;1.92;;
26574;SDS011;67165;50.256;10.978;2023-03-23T01:11:31;2.17;;;1.85;;
26574;SDS011;67165;50.256;10.978;2023-03-23T01:13:57;3.03;;;1.77;;
26574;SDS011;67165;50.256;10.978;2023-03-23T01:16:23;7.07;;;2.20;;
26574;SDS011;67165;50.256;10.978;2023-03-23T01:18:49;2.67;;;1.90;;
26574;SDS011;67165;50.256;10.978;2023-03-23T01:21:18;5.40;;;2.20;;
26574;SDS011;67165;50.256;10.978;2023-03-23T01:23:45;7.28;;;2.38;;
26574;SDS011;67165;50.256;10.978;2023-03-23T01:26:12;3.63;;;2.10;;
26574;SDS011;67165;50.256;10.978;2023-03-23T01:28:44;3.80;;;2.08;;
26574;SDS011;67165;50.256;10.978;2023-03-23T01:31:11;3.83;;;2.33;;
26574;SDS011;67165;50.256;10.978;2023-03-23T01:33:39;3.65;;;2.30;;
26574;SDS011;67165;50.256;10.978;2023-03-23T01:36:06;2.72;;;2.17;;
26574;SDS011;67165;50.256;10.978;2023-03-23T01:38:35;3.80;;;1.90;;
26574;SDS011;67165;50.256;10.978;2023-03-23T01:41:01;2.60;;;2.13;;
26574;SDS011;67165;50.256;10.978;2023-03-23T01:43:27;3.45;;;1.90;;
26574;SDS011;67165;50.256;10.978;2023-03-23T01:45:53;5.47;;;2.17;;
26574;SDS011;67165;50.256;10.978;2023-03-23T01:48:35;3.00;;;2.00;;
26574;SDS011;67165;50.256;10.978;2023-03-23T01:51:04;4.37;;;2.17;;
26574;SDS011;67165;50.256;10.978;2023-03-23T01:53:38;4.45;;;1.95;;
26574;SDS011;67165;50.256;10.978;2023-03-23T01:56:16;4.00;;;2.30;;
26574;SDS011;67165;50.256;10.978;2023-03-23T02:01:15;3.40;;;2.22;;
26574;SDS011;67165;50.256;10.978;2023-03-23T02:03:42;4.80;;;2.10;;
26574;SDS011;67165;50.256;10.978;2023-03-23T02:06:10;4.90;;;2.25;;
26574;SDS011;67165;50.256;10.978;2023-03-23T02:08:37;3.53;;;2.10;;
26574;SDS011;67165;50.256;10.978;2023-03-23T02:11:12;4.03;;;1.98;;
26574;SDS011;67165;50.256;10.978;2023-03-23T02:13:39;2.13;;;1.83;;
26574;SDS011;67165;50.256;10.978;2023-03-23T02:22:07;2.67;;;1.92;;
26574;SDS011;67165;50.256;10.978;2023-03-23T02:35:12;6.03;;;2.10;;
26574;SDS011;67165;50.256;10.978;2023-03-23T02:37:52;2.90;;;2.08;;
26574;SDS011;67165;50.256;10.978;2023-03-23T02:40:39;4.57;;;2.20;;
26574;SDS011;67165;50.256;10.978;2023-03-23T02:43:07;3.17;;;1.83;;
26574;SDS011;67165;50.256;10.978;2023-03-23T02:45:35;3.40;;;2.15;;
26574;SDS011;67165;50.256;10.978;2023-03-23T02:48:04;4.85;;;2.13;;
26574;SDS011;67165;50.256;10.978;2023-03-23T02:50:32;3.25;;;2.40;;
26574;SDS011;67165;50.256;10.978;2023-03-23T02:53:00;4.03;;;1.80;;
26574;SDS011;67165;50.256;10.978;2023-03-23T02:55:27;6.38;;;2.10;;
26574;SDS011;67165;50.256;10.978;2023-03-23T02:57:55;3.78;;;2.15;;
26574;SDS011;67165;50.256;10.978;2023-03-23T03:00:20;2.40;;;1.80;;
26574;SDS011;67165;50.256;10.978;2023-03-23T03:02:50;3.67;;;2.30;;
26574;SDS011;67165;50.256;10.978;2023-03-23T03:05:22;5.82;;;2.33;;
26574;SDS011;67165;50.256;10.978;2023-03-23T03:07:54;3.45;;;2.17;;
26574;SDS011;67165;50.256;10.978;2023-03-23T03:18:33;3.88;;;2.40;;
26574;SDS011;67165;50.256;10.978;2023-03-23T03:21:04;5.30;;;2.58;;
26574;SDS011;67165;50.256;10.978;2023-03-23T03:23:36;6.30;;;3.17;;
26574;SDS011;67165;50.256;10.978;2023-03-23T03:26:06;4.32;;;2.60;;
26574;SDS011;67165;50.256;10.978;2023-03-23T03:28:34;3.67;;;2.50;;
26574;SDS011;67165;50.256;10.978;2023-03-23T03:31:01;4.85;;;2.95;;
26574;SDS011;67165;50.256;10.978;2023-03-23T03:33:29;3.38;;;2.40;;
26574;SDS011;67165;50.256;10.978;2023-03-23T03:36:00;6.57;;;2.92;;
26574;SDS011;67165;50.256;10.978;2023-03-23T03:38:40;5.15;;;2.47;;
26574;SDS011;67165;50.256;10.978;2023-03-23T03:41:12;7.78;;;2.35;;
26574;SDS011;67165;50.256;10.978;2023-03-23T03:43:38;4.72;;;2.60;;
26574;SDS011;67165;50.256;10.978;2023-03-23T03:46:03;5.15;;;2.70;;
26574;SDS011;67165;50.256;10.978;2023-03-23T03:48:29;4.38;;;2.30;;
26574;SDS011;67165;50.256;10.978;2023-03-23T03:50:55;3.60;;;2.50;;
26574;SDS011;67165;50.256;10.978;2023-03-23T03:53:22;3.65;;;2.42;;
26574;SDS011;67165;50.256;10.978;2023-03-23T03:55:48;4.03;;;2.28;;
26574;SDS011;67165;50.256;10.978;2023-03-23T03:58:15;3.78;;;2.00;;
26574;SDS011;67165;50.256;10.978;2023-03-23T04:00:41;3.25;;;2.03;;
26574;SDS011;67165;50.256;10.978;2023-03-23T04:03:07;3.88;;;2.00;;
26574;SDS011;67165;50.256;10.978;2023-03-23T04:05:34;3.33;;;2.00;;
26574;SDS011;67165;50.256;10.978;2023-03-23T04:08:01;4.15;;;2.15;;
26574;SDS011;67165;50.256;10.978;2023-03-23T04:10:28;4.97;;;2.13;;
26574;SDS011;67165;50.256;10.978;2023-03-23T04:12:55;4.55;;;2.10;;
26574;SDS011;67165;50.256;10.978;2023-03-23T04:15:21;5.18;;;2.47;;
26574;SDS011;67165;50.256;10.978;2023-03-23T04:17:47;2.55;;;1.98;;
26574;SDS011;67165;50.256;10.978;2023-03-23T04:20:13;2.92;;;2.30;;
26574;SDS011;67165;50.256;10.978;2023-03-23T04:22:45;4.70;;;2.60;;
26574;SDS011;67165;50.256;10.978;2023-03-23T04:25:14;4.47;;;2.10;;
26574;SDS011;67165;50.256;10.978;2023-03-23T04:27:42;9.48;;;2.80;;
26574;SDS011;67165;50.256;10.978;2023-03-23T04:30:09;4.55;;;2.50;;
26574;SDS011;67165;50.256;10.978;2023-03-23T04:32:37;3.75;;;2.50;;
26574;SDS011;67165;50.256;10.978;2023-03-23T04:35:07;11.90;;;2.80;;
26574;SDS011;67165;50.256;10.978;2023-03-23T04:37:37;4.03;;;2.30;;
26574;SDS011;67165;50.256;10.978;2023-03-23T04:40:04;3.10;;;2.05;;
26574;SDS011;67165;50.256;10.978;2023-03-23T04:42:32;3.35;;;2.08;;
26574;SDS011;67165;50.256;10.978;2023-03-23T04:44:58;4.65;;;2.45;;
26574;SDS011;67165;50.256;10.978;2023-03-23T04:47:24;2.45;;;2.10;;
26574;SDS011;67165;50.256;10.978;2023-03-23T04:49:54;3.55;;;2.00;;
26574;SDS011;67165;50.256;10.978;2023-03-23T04:52:21;6.95;;;2.42;;
26574;SDS011;67165;50.256;10.978;2023-03-23T04:54:46;2.63;;;2.00;;
26574;SDS011;67165;50.256;10.978;2023-03-23T04:57:12;6.60;;;2.50;;
26574;SDS011;67165;50.256;10.978;2023-03-23T04:59:40;2.90;;;2.33;;
26574;SDS011;67165;50.256;10.978;2023-03-23T05:02:06;3.42;;;2.33;;
26574;SDS011;67165;50.256;10.978;2023-03-23T05:04:32;3.15;;;2.30;;
26574;SDS011;67165;50.256;10.978;2023-03-23T05:06:58;4.93;;;2.50;;
26574;SDS011;67165;50.256;10.978;2023-03-23T05:09:24;5.28;;;2.60;;
26574;SDS011;67165;50.256;10.978;2023-03-23T05:11:49;3.25;;;2.38;;
26574;SDS011;67165;50.256;10.978;2023-03-23T05:14:15;4.75;;;3.30;;
26574;SDS011;67165;50.256;10.978;2023-03-23T05:16:41;4.20;;;3.13;;
26574;SDS011;67165;50.256;10.978;2023-03-23T05:19:06;7.50;;;4.10;;
26574;SDS011;67165;50.256;10.978;2023-03-23T05:21:33;7.20;;;4.32;;
26574;SDS011;67165;50.256;10.978;2023-03-23T05:23:59;5.50;;;3.55;;
26574;SDS011;67165;50.256;10.978;2023-03-23T05:26:26;6.53;;;3.45;;
26574;SDS011;67165;50.256;10.978;2023-03-23T05:28:55;4.93;;;2.90;;
26574;SDS011;67165;50.256;10.978;2023-03-23T05:31:21;4.20;;;2.50;;
26574;SDS011;67165;50.256;10.978;2023-03-23T05:33:49;4.57;;;2.33;;
26574;SDS011;67165;50.256;10.978;2023-03-23T05:36:16;3.88;;;2.22;;
26574;SDS011;67165;50.256;10.978;2023-03-23T05:38:42;4.72;;;2.20;;
26574;SDS011;67165;50.256;10.978;2023-03-23T05:41:10;3.95;;;2.20;;
26574;SDS011;67165;50.256;10.978;2023-03-23T05:43:37;5.78;;;2.53;;
26574;SDS011;67165;50.256;10.978;2023-03-23T05:46:02;5.90;;;2.58;;
26574;SDS011;67165;50.256;10.978;2023-03-23T05:48:28;2.60;;;2.20;;
26574;SDS011;67165;50.256;10.978;2023-03-23T05:50:54;4.00;;;2.80;;
26574;SDS011;67165;50.256;10.978;2023-03-23T05:53:21;4.65;;;2.75;;
26574;SDS011;67165;50.256;10.978;2023-03-23T05:55:46;3.75;;;2.50;;
26574;SDS011;67165;50.256;10.978;2023-03-23T05:58:12;3.25;;;2.22;;
26574;SDS011;67165;50.256;10.978;2023-03-23T06:00:38;3.88;;;2.05;;
26574;SDS011;67165;50.256;10.978;2023-03-23T06:03:04;3.97;;;2.50;;
26574;SDS011;67165;50.256;10.978;2023-03-23T06:05:29;3.33;;;1.85;;
26574;SDS011;67165;50.256;10.978;2023-03-23T06:07:55;3.40;;;2.20;;
26574;SDS011;67165;50.256;10.978;2023-03-23T06:10:21;3.38;;;2.08;;
26574;SDS011;67165;50.256;10.978;2023-03-23T06:12:47;4.72;;;2.50;;
26574;SDS011;67165;50.256;10.978;2023-03-23T06:15:16;2.55;;;2.00;;
26574;SDS011;67165;50.256;10.978;2023-03-23T06:17:42;4.90;;;2.45;;
26574;SDS011;67165;50.256;10.978;2023-03-23T06:20:08;3.22;;;2.15;;
26574;SDS011;67165;50.256;10.978;2023-03-23T06:22:35;4.28;;;2.30;;
26574;SDS011;67165;50.256;10.978;2023-03-23T06:25:03;3.85;;;2.10;;
26574;SDS011;67165;50.256;10.978;2023-03-23T06:27:30;4.35;;;2.17;;
26574;SDS011;67165;50.256;10.978;2023-03-23T06:29:55;8.48;;;2.53;;
26574;SDS011;67165;50.256;10.978;2023-03-23T06:32:21;3.63;;;2.50;;
26574;SDS011;67165;50.256;10.978;2023-03-23T06:34:48;4.60;;;2.35;;
26574;SDS011;67165;50.256;10.978;2023-03-23T06:37:14;3.13;;;2.42;;
26574;SDS011;67165;50.256;10.978;2023-03-23T06:39:40;4.15;;;2.50;;
26574;SDS011;67165;50.256;10.978;2023-03-23T06:42:10;5.07;;;2.42;;
26574;SDS011;67165;50.256;10.978;2023-03-23T06:44:36;5.13;;;2.88;;
26574;SDS011;67165;50.256;10.978;2023-03-23T06:47:03;3.65;;;2.45;;
26574;SDS011;67165;50.256;10.978;2023-03-23T06:49:29;5.05;;;2.67;;
26574;SDS011;67165;50.256;10.978;2023-03-23T06:51:55;3.05;;;2.40;;
26574;SDS011;67165;50.256;10.978;2023-03-23T06:54:21;6.15;;;3.03;;
26574;SDS011;67165;50.256;10.978;2023-03-23T06:56:47;7.07;;;2.80;;
26574;SDS011;67165;50.256;10.978;2023-03-23T06:59:13;6.50;;;2.88;;
26574;SDS011;67165;50.256;10.978;2023-03-23T07:01:38;8.18;;;3.30;;
26574;SDS011;67165;50.256;10.978;2023-03-23T07:04:04;4.05;;;2.60;;
26574;SDS011;67165;50.256;10.978;2023-03-23T07:06:31;4.57;;;2.60;;
26574;SDS011;67165;50.256;10.978;2023-03-23T07:08:57;10.57;;;2.95;;
26574;SDS011;67165;50.256;10.978;2023-03-23T07:11:22;3.97;;;2.83;;
26574;SDS011;67165;50.256;10.978;2023-03-23T07:13:49;4.07;;;2.90;;
26574;SDS011;67165;50.256;10.978;2023-03-23T07:16:15;3.90;;;2.90;;
26574;SDS011;67165;50.256;10.978;2023-03-23T07:18:41;6.47;;;2.78;;
26574;SDS011;67165;50.256;10.978;2023-03-23T07:21:07;4.82;;;3.22;;
26574;SDS011;67165;50.256;10.978;2023-03-23T07:23:33;3.88;;;2.67;;
26574;SDS011;67165;50.256;10.978;2023-03-23T07:25:59;3.95;;;2.70;;
26574;SDS011;67165;50.256;10.978;2023-03-23T07:28:25;5.78;;;2.70;;
26574;SDS011;67165;50.256;10.978;2023-03-23T07:30:51;5.70;;;3.08;;
26574;SDS011;67165;50.256;10.978;2023-03-23T07:33:17;5.03;;;3.08;;
26574;SDS011;67165;50.256;10.978;2023-03-23T07:35:43;4.55;;;3.30;;
26574;SDS011;67165;50.256;10.978;2023-03-23T07:38:09;5.50;;;2.80;;
26574;SDS011;67165;50.256;10.978;2023-03-23T07:40:35;3.95;;;3.13;;
26574;SDS011;67165;50.256;10.978;2023-03-23T07:43:01;4.93;;;3.30;;
26574;SDS011;67165;50.256;10.978;2023-03-23T07:45:28;4.57;;;2.88;;
26574;SDS011;67165;50.256;10.978;2023-03-23T07:47:55;3.67;;;2.70;;
26574;SDS011;67165;50.256;10.978;2023-03-23T07:50:21;4.20;;;2.80;;
26574;SDS011;67165;50.256;10.978;2023-03-23T07:52:49;7.85;;;2.78;;
26574;SDS011;67165;50.256;10.978;2023-03-23T07:55:15;3.80;;;2.83;;
26574;SDS011;67165;50.256;10.978;2023-03-23T07:57:45;8.05;;;2.90;;
26574;SDS011;67165;50.256;10.978;2023-03-23T08:00:12;4.78;;;2.75;;
26574;SDS011;67165;50.256;10.978;2023-03-23T08:02:52;7.60;;;3.08;;
26574;SDS011;67165;50.256;10.978;2023-03-23T08:05:23;3.72;;;2.60;;
26574;SDS011;67165;50.256;10.978;2023-03-23T08:07:51;6.07;;;2.80;;
26574;SDS011;67165;50.256;10.978;2023-03-23T08:10:19;6.35;;;3.05;;
26574;SDS011;67165;50.256;10.978;2023-03-23T08:12:49;4.28;;;2.78;;
26574;SDS011;67165;50.256;10.978;2023-03-23T08:15:17;7.00;;;2.80;;
26574;SDS011;67165;50.256;10.978;2023-03-23T08:17:44;4.72;;;2.60;;
26574;SDS011;67165;50.256;10.978;2023-03-23T08:20:13;4.57;;;2.60;;
26574;SDS011;67165;50.256;10.978;2023-03-23T08:22:40;2.78;;;2.28;;
26574;SDS011;67165;50.256;10.978;2023-03-23T08:25:08;3.40;;;2.40;;
26574;SDS011;67165;50.256;10.978;2023-03-23T08:27:35;5.22;;;2.63;;
26574;SDS011;67165;50.256;10.978;2023-03-23T08:30:01;3.65;;;2.85;;
26574;SDS011;67165;50.256;10.978;2023-03-23T08:32:30;7.18;;;4.47;;
26574;SDS011;67165;50.256;10.978;2023-03-23T08:34:55;8.07;;;5.68;;
26574;SDS011;67165;50.256;10.978;2023-03-23T08:37:22;7.95;;;5.15;;
26574;SDS011;67165;50.256;10.978;2023-03-23T08:39:50;11.05;;;5.60;;
26574;SDS011;67165;50.256;10.978;2023-03-23T08:42:17;6.80;;;5.32;;
26574;SDS011;67165;50.256;10.978;2023-03-23T08:44:43;6.03;;;3.30;;
26574;SDS011;67165;50.256;10.978;2023-03-23T08:47:09;5.25;;;3.45;;
26574;SDS011;67165;50.256;10.978;2023-03-23T08:49:35;4.15;;;3.38;;
26574;SDS011;67165;50.256;10.978;2023-03-23T08:52:00;4.40;;;2.78;;
26574;SDS011;67165;50.256;10.978;2023-03-23T08:54:27;3.10;;;2.42;;
26574;SDS011;67165;50.256;10.978;2023-03-23T08:56:55;3.08;;;2.60;;
26574;SDS011;67165;50.256;10.978;2023-03-23T08:59:23;8.75;;;2.50;;
26574;SDS011;67165;50.256;10.978;2023-03-23T09:01:50;3.20;;;2.40;;
26574;SDS011;67165;50.256;10.978;2023-03-23T09:04:15;3.65;;;2.28;;
26574;SDS011;67165;50.256;10.978;2023-03-23T09:06:41;3.70;;;2.50;;
26574;SDS011;67165;50.256;10.978;2023-03-23T09:09:07;5.25;;;2.78;;
26574;SDS011;67165;50.256;10.978;2023-03-23T09:11:34;3.72;;;2.63;;
26574;SDS011;67165;50.256;10.978;2023-03-23T09:14:00;4.18;;;2.38;;
26574;SDS011;67165;50.256;10.978;2023-03-23T09:16:26;4.88;;;2.30;;
26574;SDS011;67165;50.256;10.978;2023-03-23T09:18:56;3.50;;;2.40;;
26574;SDS011;67165;50.256;10.978;2023-03-23T09:21:22;2.67;;;2.30;;
26574;SDS011;67165;50.256;10.978;2023-03-23T09:23:48;3.92;;;2.40;;
26574;SDS011;67165;50.256;10.978;2023-03-23T09:26:14;3.17;;;2.45;;
26574;SDS011;67165;50.256;10.978;2023-03-23T09:28:40;3.17;;;2.17;;
26574;SDS011;67165;50.256;10.978;2023-03-23T09:31:06;3.53;;;2.30;;
26574;SDS011;67165;50.256;10.978;2023-03-23T09:33:32;5.95;;;2.47;;
26574;SDS011;67165;50.256;10.978;2023-03-23T09:35:58;4.70;;;2.17;;
26574;SDS011;67165;50.256;10.978;2023-03-23T09:38:24;5.82;;;2.55;;
26574;SDS011;67165;50.256;10.978;2023-03-23T09:40:59;4.07;;;2.45;;
26574;SDS011;67165;50.256;10.978;2023-03-23T09:48:53;5.20;;;2.70;;
26574;SDS011;67165;50.256;10.978;2023-03-23T09:56:57;2.33;;;2.00;;
26574;SDS011;67165;50.256;10.978;2023-03-23T09:59:31;4.63;;;2.13;;
26574;SDS011;67165;50.256;10.978;2023-03-23T10:02:10;5.20;;;2.15;;
26574;SDS011;67165;50.256;10.978;2023-03-23T10:04:46;4.43;;;2.47;;
26574;SDS011;67165;50.256;10.978;2023-03-23T10:09:45;3.17;;;1.80;;
26574;SDS011;67165;50.256;10.978;2023-03-23T10:15:30;4.68;;;2.47;;
26574;SDS011;67165;50.256;10.978;2023-03-23T10:18:12;3.42;;;2.20;;
26574;SDS011;67165;50.256;10.978;2023-03-23T10:29:15;3.22;;;2.42;;
26574;SDS011;67165;50.256;10.978;2023-03-23T10:32:00;4.55;;;2.70;;
26574;SDS011;67165;50.256;10.978;2023-03-23T10:34:40;4.53;;;2.00;;
26574;SDS011;67165;50.256;10.978;2023-03-23T10:42:30;3.15;;;1.98;;
26574;SDS011;67165;50.256;10.978;2023-03-23T10:44:58;3.85;;;2.35;;
26574;SDS011;67165;50.256;10.978;2023-03-23T10:47:25;3.92;;;2.40;;
26574;SDS011;67165;50.256;10.978;2023-03-23T10:49:59;3.78;;;2.25;;
26574;SDS011;67165;50.256;10.978;2023-03-23T10:52:40;3.45;;;2.00;;
26574;SDS011;67165;50.256;10.978;2023-03-23T10:57:42;4.82;;;2.33;;
26574;SDS011;67165;50.256;10.978;2023-03-23T11:00:17;3.03;;;2.40;;
26574;SDS011;67165;50.256;10.978;2023-03-23T11:08:21;2.35;;;2.05;;
26574;SDS011;67165;50.256;10.978;2023-03-23T11:10:53;3.60;;;2.20;;
26574;SDS011;67165;50.256;10.978;2023-03-23T11:13:27;6.13;;;2.13;;
26574;SDS011;67165;50.256;10.978;2023-03-23T11:15:57;2.47;;;2.00;;
26574;SDS011;67165;50.256;10.978;2023-03-23T11:18:37;3.60;;;2.15;;
26574;SDS011;67165;50.256;10.978;2023-03-23T11:21:04;4.45;;;2.42;;
26574;SDS011;67165;50.256;10.978;2023-03-23T11:23:36;2.38;;;1.92;;
26574;SDS011;67165;50.256;10.978;2023-03-23T11:31:49;2.63;;;1.80;;
26574;SDS011;67165;50.256;10.978;2023-03-23T11:36:57;3.15;;;1.80;;
26574;SDS011;67165;50.256;10.978;2023-03-23T11:41:54;4.28;;;1.58;;
26574;SDS011;67165;50.256;10.978;2023-03-23T11:44:23;1.92;;;1.50;;
26574;SDS011;67165;50.256;10.978;2023-03-23T11:55:15;2.72;;;1.65;;
26574;SDS011;67165;50.256;10.978;2023-03-23T11:57:55;2.50;;;1.50;;
26574;SDS011;67165;50.256;10.978;2023-03-23T12:00:25;1.50;;;1.40;;
26574;SDS011;67165;50.256;10.978;2023-03-23T12:06:11;2.33;;;1.55;;
26574;SDS011;67165;50.256;10.978;2023-03-23T12:27:55;2.03;;;1.50;;
26574;SDS011;67165;50.256;10.978;2023-03-23T12:33:32;2.65;;;2.10;;
26574;SDS011;67165;50.256;10.978;2023-03-23T12:36:19;2.67;;;1.67;;
26574;SDS011;67165;50.256;10.978;2023-03-23T12:39:00;4.20;;;1.80;;
26574;SDS011;67165;50.256;10.978;2023-03-23T12:44:19;3.38;;;2.20;;
26574;SDS011;67165;50.256;10.978;2023-03-23T12:49:35;2.65;;;1.58;;
26574;SDS011;67165;50.256;10.978;2023-03-23T12:52:16;1.95;;;1.48;;
26574;SDS011;67165;50.256;10.978;2023-03-23T13:00:30;14.85;;;7.57;;
26574;SDS011;67165;50.256;10.978;2023-03-23T13:03:05;8.90;;;5.72;;
26574;SDS011;67165;50.256;10.978;2023-03-23T13:08:40;2.42;;;1.80;;
26574;SDS011;67165;50.256;10.978;2023-03-23T13:11:15;4.00;;;2.75;;
26574;SDS011;67165;50.256;10.978;2023-03-23T13:13:51;6.82;;;4.72;;
26574;SDS011;67165;50.256;10.978;2023-03-23T13:19:55;7.20;;;4.00;;
26574;SDS011;67165;50.256;10.978;2023-03-23T13:22:18;5.15;;;3.78;;
26574;SDS011;67165;50.256;10.978;2023-03-23T13:25:03;5.40;;;3.17;;
26574;SDS011;67165;50.256;10.978;2023-03-23T13:27:34;4.13;;;2.90;;
26574;SDS011;67165;50.256;10.978;2023-03-23T13:30:00;5.55;;;3.72;;
26574;SDS011;67165;50.256;10.978;2023-03-23T13:32:35;12.82;;;7.38;;
26574;SDS011;67165;50.256;10.978;2023-03-23T13:35:12;6.45;;;3.60;;
26574;SDS011;67165;50.256;10.978;2023-03-23T13:37:44;5.32;;;3.70;;
26574;SDS011;67165;50.256;10.978;2023-03-23T13:42:54;12.32;;;6.35;;
26574;SDS011;67165;50.256;10.978;2023-03-23T13:45:43;14.95;;;6.47;;
26574;SDS011;67165;50.256;10.978;2023-03-23T13:51:21;7.75;;;4.07;;
26574;SDS011;67165;50.256;10.978;2023-03-23T13:53:48;5.70;;;3.17;;
26574;SDS011;67165;50.256;10.978;2023-03-23T13:58:49;8.52;;;5.43;;
26574;SDS011;67165;50.256;10.978;2023-03-23T14:01:19;6.78;;;3.50;;
26574;SDS011;67165;50.256;10.978;2023-03-23T14:04:06;3.50;;;2.65;;
26574;SDS011;67165;50.256;10.978;2023-03-23T14:06:43;4.22;;;2.10;;
26574;SDS011;67165;50.256;10.978;2023-03-23T14:12:14;3.78;;;1.98;;
26574;SDS011;67165;50.256;10.978;2023-03-23T14:17:13;6.00;;;2.60;;
26574;SDS011;67165;50.256;10.978;2023-03-23T14:19:50;3.38;;;2.20;;
26574;SDS011;67165;50.256;10.978;2023-03-23T14:25:10;2.08;;;1.50;;
26574;SDS011;67165;50.256;10.978;2023-03-23T14:27:38;2.47;;;1.73;;
26574;SDS011;67165;50.256;10.978;2023-03-23T14:30:08;2.33;;;1.48;;
26574;SDS011;67165;50.256;10.978;2023-03-23T14:32:38;2.15;;;1.55;;
26574;SDS011;67165;50.256;10.978;2023-03-23T14:35:05;1.88;;;1.60;;
26574;SDS011;67165;50.256;10.978;2023-03-23T14:37:52;2.50;;;1.75;;
26574;SDS011;67165;50.256;10.978;2023-03-23T14:40:18;2.00;;;1.60;;
26574;SDS011;67165;50.256;10.978;2023-03-23T14:42:44;2.45;;;1.60;;
26574;SDS011;67165;50.256;10.978;2023-03-23T14:45:18;2.15;;;1.50;;
26574;SDS011;67165;50.256;10.978;2023-03-23T14:47:46;2.10;;;1.50;;
26574;SDS011;67165;50.256;10.978;2023-03-23T14:50:36;2.42;;;1.90;;
26574;SDS011;67165;50.256;10.978;2023-03-23T14:53:47;5.80;;;1.60;;
26574;SDS011;67165;50.256;10.978;2023-03-23T14:55:59;4.03;;;1.70;;
26574;SDS011;67165;50.256;10.978;2023-03-23T14:58:29;2.53;;;1.55;;
26574;SDS011;67165;50.256;10.978;2023-03-23T15:00:59;2.20;;;1.63;;
26574;SDS011;67165;50.256;10.978;2023-03-23T15:03:28;4.20;;;1.65;;
26574;SDS011;67165;50.256;10.978;2023-03-23T15:06:14;3.72;;;1.50;;
26574;SDS011;67165;50.256;10.978;2023-03-23T15:08:42;1.83;;;1.65;;
26574;SDS011;67165;50.256;10.978;2023-03-23T15:13:44;1.77;;;1.60;;
26574;SDS011;67165;50.256;10.978;2023-03-23T15:16:18;3.15;;;1.88;;
26574;SDS011;67165;50.256;10.978;2023-03-23T15:18:48;2.92;;;1.40;;
26574;SDS011;67165;50.256;10.978;2023-03-23T15:21:22;2.92;;;1.60;;
26574;SDS011;67165;50.256;10.978;2023-03-23T15:26:25;1.63;;;1.50;;
26574;SDS011;67165;50.256;10.978;2023-03-23T15:29:00;2.33;;;1.50;;
26574;SDS011;67165;50.256;10.978;2023-03-23T15:31:33;2.13;;;1.63;;
26574;SDS011;67165;50.256;10.978;2023-03-23T15:34:10;1.90;;;1.50;;
26574;SDS011;67165;50.256;10.978;2023-03-23T15:36:40;2.40;;;1.60;;
26574;SDS011;67165;50.256;10.978;2023-03-23T15:39:05;2.30;;;1.50;;
26574;SDS011;67165;50.256;10.978;2023-03-23T15:41:34;2.42;;;1.48;;
26574;SDS011;67165;50.256;10.978;2023-03-23T15:44:18;3.70;;;1.63;;
26574;SDS011;67165;50.256;10.978;2023-03-23T15:46:51;2.70;;;1.50;;
26574;SDS011;67165;50.256;10.978;2023-03-23T15:49:18;2.50;;;1.48;;
26574;SDS011;67165;50.256;10.978;2023-03-23T15:51:45;2.67;;;1.42;;
26574;SDS011;67165;50.256;10.978;2023-03-23T15:54:12;1.63;;;1.38;;
26574;SDS011;67165;50.256;10.978;2023-03-23T15:56:40;2.25;;;1.40;;
26574;SDS011;67165;50.256;10.978;2023-03-23T15:59:09;1.60;;;1.40;;
26574;SDS011;67165;50.256;10.978;2023-03-23T16:01:36;3.17;;;1.58;;
26574;SDS011;67165;50.256;10.978;2023-03-23T16:04:05;2.72;;;1.42;;
26574;SDS011;67165;50.256;10.978;2023-03-23T16:06:32;2.53;;;1.67;;
26574;SDS011;67165;50.256;10.978;2023-03-23T16:08:59;1.75;;;1.50;;
26574;SDS011;67165;50.256;10.978;2023-03-23T16:11:25;2.53;;;1.50;;
26574;SDS011;67165;50.256;10.978;2023-03-23T16:13:53;1.45;;;1.30;;
26574;SDS011;67165;50.256;10.978;2023-03-23T16:16:29;1.50;;;1.30;;
26574;SDS011;67165;50.256;10.978;2023-03-23T16:18:58;2.85;;;1.50;;
26574;SDS011;67165;50.256;10.978;2023-03-23T16:21:24;1.70;;;1.30;;
26574;SDS011;67165;50.256;10.978;2023-03-23T16:23:50;2.33;;;1.30;;
26574;SDS011;67165;50.256;10.978;2023-03-23T16:26:16;3.70;;;1.73;;
26574;SDS011;67165;50.256;10.978;2023-03-23T16:28:42;4.95;;;1.65;;
26574;SDS011;67165;50.256;10.978;2023-03-23T16:31:08;2.03;;;1.40;;
26574;SDS011;67165;50.256;10.978;2023-03-23T16:33:34;2.33;;;1.58;;
26574;SDS011;67165;50.256;10.978;2023-03-23T16:36:00;2.67;;;1.60;;
26574;SDS011;67165;50.256;10.978;2023-03-23T16:38:26;2.33;;;1.45;;
26574;SDS011;67165;50.256;10.978;2023-03-23T16:40:52;2.17;;;1.30;;
26574;SDS011;67165;50.256;10.978;2023-03-23T16:43:19;2.53;;;1.58;;
26574;SDS011;67165;50.256;10.978;2023-03-23T16:45:45;2.92;;;1.80;;
26574;SDS011;67165;50.256;10.978;2023-03-23T16:48:12;1.80;;;1.60;;
26574;SDS011;67165;50.256;10.978;2023-03-23T16:50:40;2.20;;;1.60;;
26574;SDS011;67165;50.256;10.978;2023-03-23T16:53:07;2.33;;;1.70;;
26574;SDS011;67165;50.256;10.978;2023-03-23T16:55:34;1.45;;;1.33;;
26574;SDS011;67165;50.256;10.978;2023-03-23T16:58:00;1.98;;;1.40;;
26574;SDS011;67165;50.256;10.978;2023-03-23T17:00:27;1.92;;;1.30;;
26574;SDS011;67165;50.256;10.978;2023-03-23T17:02:53;2.58;;;1.48;;
26574;SDS011;67165;50.256;10.978;2023-03-23T17:05:22;1.73;;;1.40;;
26574;SDS011;67165;50.256;10.978;2023-03-23T17:07:49;2.28;;;1.48;;
26574;SDS011;67165;50.256;10.978;2023-03-23T17:10:15;1.60;;;1.50;;
26574;SDS011;67165;50.256;10.978;2023-03-23T17:12:41;2.45;;;1.60;;
26574;SDS011;67165;50.256;10.978;2023-03-23T17:15:08;2.03;;;1.65;;